• Join FlightAware (Why Join?)
  • Login
  • US Flag 
12:15AM EDT


 

Airport Tracker/Info


-or-


 

Live Flight TrackerFlight Track Log ✈ N220MJ ✈ 01-Jul-2013 ✈ KPLN - KPTK

Flight Track Log - Related Links

Times and Time Zones

All times are in EDT time to prevent confusion due to time zone crossing. See the N220MJ flight status page for this flight to view local times or setup timezone preferences in your user account.

Time Position Orientation Groundspeed Altitude Reporting Facility
EDT Latitude Longitude Course Direction KTS MPH feet Rate Location/Type
12:50PM 45.2644 -84.6446 155° Southeast  Level Estimated
12:50PM 45.5417 -84.7503 161° South 96 110 3,200  Level Minneapolis Center
12:51PM 45.2031 -84.6144 152° Southeast  Level Estimated
12:51PM 45.5144 -84.6939 125° Southeast 158 182 5,100  Level Minneapolis Center
12:52PM 45.1674 -84.5374 123° Southeast  Level FlightAware Approximate
12:53PM 45.1058 -84.5087 151° Southeast  Level Estimated
12:53PM 45.4475 -84.5925 133° Southeast 180 207 8,600  Level Minneapolis Center
12:54PM 45.0441 -84.4800 167° South  Level Estimated
12:54PM 45.3942 -84.5725 165° South 185 213 10,300  Level Minneapolis Center
12:55PM 44.9824 -84.4514 161° South  Level Estimated
12:55PM 45.3450 -84.5497 162° South 188 216 11,700  Level Minneapolis Center
12:56PM 45.2903 -84.5275 164° South 192 221 13,200 1,200 Climbing Minneapolis Center
12:57PM 45.2392 -84.5067 164° South 193 222 14,300 1,020 Climbing Minneapolis Center
12:59PM 45.1572 -84.4705 155° Southeast  Level Estimated
12:59PM 45.1303 -84.4614 155° Southeast 199 229 16,500  Level Minneapolis Center
01:00PM 45.0703 -84.4378 164° South 209 241 17,000 240 Climbing Minneapolis Center
01:01PM 44.9997 -84.4100 164° South 247 284 17,000  Level Minneapolis Center
01:02PM 44.9300 -84.3856 166° South 261 300 17,000  Level Minneapolis Center
01:03PM 44.8536 -84.3564 165° South 266 306 17,000  Level Minneapolis Center
01:04PM 44.7817 -84.3311 166° South 269 310 17,000  Level Minneapolis Center
01:06PM 44.7250 -84.2900 164° South  Level FlightAware Approximate
01:07PM 44.6342 -84.2767 164° South 266 306 17,000  Level Minneapolis Center
01:08PM 44.5564 -84.2503 166° South 268 308 17,000  Level Minneapolis Center
01:09PM 44.4844 -84.2269 167° South 267 307 17,000  Level Minneapolis Center
01:10PM 44.4056 -84.2031 168° South 270 311 17,000  Level Minneapolis Center
01:12PM 44.2556 -84.1600 168° South 269 310 17,000  Level Minneapolis Center
01:13PM 44.1775 -84.1392 169° South 264 304 17,000  Level Minneapolis Center
01:14PM 44.1044 -84.1203 169° South 269 310 17,000  Level Minneapolis Center
01:16PM 43.9992 -84.1541 175° South  Level FlightAware Approximate
01:16PM 43.9572 -84.1039 175° South 272 313 17,000  Level Cleveland Center
01:17PM 43.8847 -84.0883 171° South 272 313 17,000  Level Cleveland Center
01:18PM 43.8142 -84.0728 171° South 272 313 17,100  Climbing Cleveland Center
01:19PM 43.7417 -84.0600 173° South 272 313 17,100  Level Cleveland Center
01:20PM 43.6647 -84.0556 178° South 278 320 17,100 -300 Level Cleveland Center
01:21PM 43.5856 -84.0539 179° South 270 311 16,500 -1,080 Descending Cleveland Center
01:22PM 43.5083 -84.0553 181° South 275 316 15,000 -1,500 Descending Cleveland Center
01:23PM 43.4386 -84.0200 160° South 275 316 13,500 -1,440 Descending Cleveland Center
01:23PM 43.3967 -83.9983 159° South 281 323 12,600 -1,560 Descending Minneapolis Center
01:25PM 43.3078 -83.9644 164° South 277 319 10,800 -1,560 Descending Minneapolis Center
01:26PM 43.2097 -83.9358 168° South 276 318 9,100 -960 Descending Cleveland Center
01:27PM 43.1394 -83.9122 166° South 271 312 8,700 -960 Descending Cleveland Center
01:28PM 43.0694 -83.8858 165° South 271 312 7,200 -1,620 Descending Cleveland Center
01:29PM 42.9831 -83.8469 162° South 256 295 5,100 -1,140 Descending Cleveland Center
01:30PM 42.9356 -83.8275 163° South 259 298 5,000 -180 Descending Cleveland Center